createdAt,value
2019-05-06T00:02:27.876Z,7.13
2019-05-06T00:04:58.534Z,9.30
2019-05-06T00:07:39.004Z,9.90
2019-05-06T00:10:24.624Z,14.73
2019-05-06T00:12:56.358Z,11.30
2019-05-06T00:15:28.686Z,10.07
2019-05-06T00:17:59.523Z,13.70
2019-05-06T00:20:30.195Z,13.20
2019-05-06T00:23:04.207Z,9.20
2019-05-06T00:25:39.334Z,12.53
2019-05-06T00:28:27.967Z,8.30
2019-05-06T00:31:12.821Z,10.70
2019-05-06T00:33:44.698Z,10.47
2019-05-06T00:36:20.660Z,10.20
2019-05-06T00:38:53.966Z,9.37
2019-05-06T00:41:29.024Z,9.07
2019-05-06T00:44:18.484Z,11.60
2019-05-06T00:46:49.131Z,11.50
2019-05-06T00:49:19.714Z,15.03
2019-05-06T00:51:50.318Z,12.07
2019-05-06T00:54:29.559Z,14.80
2019-05-06T00:57:00.163Z,11.50
2019-05-06T00:59:30.828Z,14.83
2019-05-06T01:02:01.593Z,12.93
2019-05-06T01:04:50.188Z,12.57
2019-05-06T01:07:20.798Z,13.53
2019-05-06T01:09:51.469Z,13.00
2019-05-06T01:12:24.317Z,11.50
2019-05-06T01:15:07.909Z,10.80
2019-05-06T01:17:40.702Z,14.27
2019-05-06T01:20:11.418Z,16.70
2019-05-06T01:22:45.238Z,13.83
2019-05-06T01:25:15.898Z,13.90
2019-05-06T01:27:46.486Z,12.50
2019-05-06T01:30:18.150Z,13.13
2019-05-06T01:32:48.817Z,16.87
2019-05-06T01:35:19.421Z,14.03
2019-05-06T01:37:51.868Z,14.13
2019-05-06T01:40:34.578Z,15.73
2019-05-06T01:43:06.957Z,15.30
2019-05-06T01:45:48.751Z,12.53
2019-05-06T01:48:21.047Z,14.67
2019-05-06T01:50:51.707Z,17.83
2019-05-06T01:53:24.190Z,13.03
2019-05-06T01:55:56.999Z,16.97
2019-05-06T01:58:29.719Z,14.57
2019-05-06T02:01:00.404Z,14.43
2019-05-06T02:03:31.221Z,13.20
2019-05-06T02:06:02.111Z,13.47
2019-05-06T02:08:34.338Z,15.77
2019-05-06T02:11:08.847Z,12.70
2019-05-06T02:13:47.962Z,11.03
2019-05-06T02:16:20.296Z,13.97
2019-05-06T02:18:54.138Z,13.00
2019-05-06T02:21:28.107Z,14.17
2019-05-06T02:24:07.099Z,12.97
2019-05-06T02:26:39.241Z,12.37
2019-05-06T02:29:16.186Z,15.10
2019-05-06T02:32:17.047Z,12.93
2019-05-06T02:34:45.876Z,14.33
2019-05-06T02:37:25.492Z,13.77
2019-05-06T02:39:57.941Z,13.20
2019-05-06T02:42:29.998Z,12.27
2019-05-06T02:45:04.021Z,17.57
2019-05-06T02:47:45.000Z,11.93
2019-05-06T02:50:23.907Z,17.83
2019-05-06T02:52:55.952Z,14.37
2019-05-06T02:55:33.264Z,13.37
2019-05-06T02:58:04.296Z,13.50
2019-05-06T03:00:35.190Z,14.33
2019-05-06T03:03:06.004Z,13.47
2019-05-06T03:05:39.289Z,15.30
2019-05-06T03:08:13.218Z,15.03
2019-05-06T03:10:44.243Z,14.20
2019-05-06T03:13:15.547Z,13.53
2019-05-06T03:15:47.035Z,14.27
2019-05-06T03:18:32.829Z,16.87
2019-05-06T03:21:14.202Z,13.23
2019-05-06T03:24:03.938Z,17.80
2019-05-06T03:26:45.610Z,20.77
2019-05-06T03:29:17.100Z,14.63
2019-05-06T03:31:49.356Z,18.17
2019-05-06T03:34:52.226Z,15.43
2019-05-06T03:37:07.329Z,18.10
2019-05-06T03:39:45.664Z,17.50
2019-05-06T03:42:17.069Z,17.90
2019-05-06T03:44:53.186Z,14.30
2019-05-06T03:47:26.160Z,13.90
2019-05-06T03:50:13.122Z,17.30
2019-05-06T03:52:44.314Z,18.67
2019-05-06T03:55:15.241Z,15.97
2019-05-06T03:57:48.153Z,18.63
2019-05-06T04:00:26.870Z,16.20
2019-05-06T04:03:02.920Z,15.27
2019-05-06T04:05:40.111Z,13.57
2019-05-06T04:08:12.738Z,17.63
2019-05-06T04:10:45.327Z,17.33
2019-05-06T04:13:24.163Z,19.33
2019-05-06T04:16:13.858Z,16.70
2019-05-06T04:18:47.861Z,14.83
2019-05-06T04:21:25.883Z,17.23
2019-05-06T04:23:58.265Z,14.30
2019-05-06T04:26:47.337Z,16.33
2019-05-06T04:29:20.311Z,18.80
2019-05-06T04:31:59.371Z,18.43
2019-05-06T04:34:33.161Z,18.67
2019-05-06T04:37:08.290Z,22.80
2019-05-06T04:39:53.338Z,16.23
2019-05-06T04:42:27.034Z,15.17
2019-05-06T04:45:17.738Z,20.80
2019-05-06T04:48:03.592Z,16.93
2019-05-06T04:50:44.457Z,18.97
2019-05-06T04:53:15.546Z,15.90
2019-05-06T04:55:53.950Z,22.23
2019-05-06T04:58:34.969Z,21.70
2019-05-06T05:01:05.771Z,17.10
2019-05-06T05:03:36.661Z,19.30
2019-05-06T05:06:07.299Z,16.43
2019-05-06T05:08:38.361Z,19.40
2019-05-06T05:11:29.220Z,17.33
2019-05-06T05:14:02.837Z,18.10
2019-05-06T05:16:53.857Z,17.30
2019-05-06T05:19:24.555Z,21.90
2019-05-06T05:21:56.987Z,21.73
2019-05-06T05:24:27.874Z,20.97
2019-05-06T05:26:58.590Z,16.50
2019-05-06T05:29:34.356Z,20.67
2019-05-06T05:32:07.107Z,21.93
2019-05-06T05:34:43.591Z,24.40
2019-05-06T05:37:15.165Z,17.10
2019-05-06T05:39:46.049Z,20.90
2019-05-06T05:42:32.757Z,18.40
2019-05-06T05:45:03.807Z,24.40
2019-05-06T05:47:34.388Z,20.90
2019-05-06T05:50:13.391Z,19.03
2019-05-06T05:52:44.109Z,20.20
2019-05-06T05:55:14.922Z,23.67
2019-05-06T05:57:45.489Z,15.97
2019-05-06T06:00:17.156Z,19.57
2019-05-06T06:02:47.741Z,21.63
2019-05-06T06:05:18.387Z,19.33
2019-05-06T06:08:10.065Z,22.43
2019-05-06T06:10:46.165Z,23.77
2019-05-06T06:13:16.811Z,18.33
2019-05-06T06:16:04.441Z,23.47
2019-05-06T06:18:43.151Z,23.70
2019-05-06T06:21:24.711Z,24.40
2019-05-06T06:24:04.465Z,20.70
2019-05-06T06:26:35.186Z,18.03
2019-05-06T06:29:05.881Z,20.83
2019-05-06T06:31:44.733Z,23.50
2019-05-06T06:34:29.242Z,21.83
2019-05-06T06:37:17.861Z,18.77
2019-05-06T06:39:52.719Z,19.97
2019-05-06T06:42:23.461Z,18.30
2019-05-06T06:44:54.303Z,23.43
2019-05-06T06:47:25.052Z,24.07
2019-05-06T06:49:55.757Z,22.63
2019-05-06T06:52:26.427Z,20.97
2019-05-06T06:55:12.970Z,23.83
2019-05-06T06:58:02.722Z,19.43
2019-05-06T07:00:35.189Z,22.23
2019-05-06T07:03:07.787Z,25.73
2019-05-06T07:05:59.863Z,22.13
2019-05-06T07:08:37.253Z,19.20
2019-05-06T07:11:03.650Z,25.47
2019-05-06T07:13:34.716Z,22.10
2019-05-06T07:16:05.491Z,23.13
2019-05-06T07:18:36.336Z,27.50
2019-05-06T07:21:14.028Z,15.63
2019-05-06T07:23:50.235Z,23.97
2019-05-06T07:26:23.863Z,20.97
2019-05-06T07:29:16.896Z,20.23
2019-05-06T07:31:50.470Z,17.10
2019-05-06T07:34:22.879Z,20.00
2019-05-06T07:37:03.234Z,17.83
2019-05-06T07:39:33.755Z,15.83
2019-05-06T07:42:06.738Z,17.30
2019-05-06T07:44:55.623Z,13.60
2019-05-06T07:47:33.601Z,22.77
2019-05-06T07:50:08.466Z,19.27
2019-05-06T07:52:39.169Z,16.53
2019-05-06T07:55:22.968Z,16.03
2019-05-06T07:57:55.025Z,16.90
2019-05-06T08:00:32.763Z,17.57
2019-05-06T08:03:08.155Z,16.17
2019-05-06T08:05:58.066Z,19.40
2019-05-06T08:08:18.419Z,22.87
2019-05-06T08:10:52.743Z,18.67
2019-05-06T08:13:23.686Z,20.77
2019-05-06T08:15:55.308Z,15.33
2019-05-06T08:18:26.485Z,16.47
2019-05-06T08:21:02.364Z,19.53
2019-05-06T08:23:34.441Z,22.57
2019-05-06T08:26:12.676Z,20.70
2019-05-06T08:28:44.547Z,20.30
2019-05-06T08:31:16.891Z,20.10
2019-05-06T08:33:47.763Z,17.90
2019-05-06T08:36:20.137Z,16.73
2019-05-06T08:39:02.769Z,12.83
2019-05-06T08:41:35.062Z,18.47
2019-05-06T08:44:07.076Z,17.23
2019-05-06T08:46:37.906Z,15.50
2019-05-06T08:49:12.323Z,12.47
2019-05-06T08:51:59.019Z,11.77
2019-05-06T08:54:34.290Z,14.73
2019-05-06T08:57:05.141Z,18.80
2019-05-06T08:59:35.813Z,10.63
2019-05-06T09:02:07.461Z,12.53
2019-05-06T09:04:44.157Z,13.07
2019-05-06T09:07:23.909Z,15.20
2019-05-06T09:10:02.542Z,11.17
2019-05-06T09:12:33.131Z,14.53
2019-05-06T09:15:08.533Z,9.87
2019-05-06T09:17:39.359Z,11.83
2019-05-06T09:20:12.906Z,9.70
2019-05-06T09:22:46.096Z,12.93
2019-05-06T09:25:16.970Z,13.17
2019-05-06T09:27:49.386Z,13.13
2019-05-06T09:30:33.036Z,16.33
2019-05-06T09:33:03.885Z,12.33
2019-05-06T09:35:44.970Z,13.87
2019-05-06T09:38:23.782Z,12.40
2019-05-06T09:41:09.689Z,15.87
2019-05-06T09:43:45.033Z,16.07
2019-05-06T09:46:19.153Z,20.03
2019-05-06T09:49:13.212Z,19.70
2019-05-06T09:51:44.062Z,25.70
2019-05-06T09:54:19.391Z,20.43
2019-05-06T09:56:59.051Z,21.00
2019-05-06T09:59:32.258Z,18.97
2019-05-06T10:02:06.247Z,22.53
2019-05-06T10:04:46.180Z,21.40
2019-05-06T10:07:22.568Z,20.90
2019-05-06T10:09:53.824Z,24.13
2019-05-06T10:12:24.568Z,23.00
2019-05-06T10:14:55.352Z,17.97
2019-05-06T10:17:25.984Z,24.90
2019-05-06T10:19:56.764Z,29.10
2019-05-06T10:22:27.507Z,27.10
2019-05-06T10:24:58.350Z,27.50
2019-05-06T10:27:43.768Z,25.37
2019-05-06T10:30:16.013Z,32.10
2019-05-06T10:32:54.137Z,26.30
2019-05-06T10:35:29.156Z,26.43
2019-05-06T10:38:33.590Z,33.90
2019-05-06T10:41:13.787Z,28.73
2019-05-06T10:44:09.700Z,26.57
2019-05-06T10:46:53.993Z,28.10
2019-05-06T10:49:24.919Z,24.70
2019-05-06T10:52:16.324Z,24.27
2019-05-06T10:54:51.661Z,25.13
2019-05-06T10:57:25.149Z,22.30
2019-05-06T11:00:00.687Z,19.77
2019-05-06T11:02:34.297Z,29.13
2019-05-06T11:05:06.481Z,22.83
2019-05-06T11:07:43.086Z,22.70
2019-05-06T11:10:25.035Z,19.63
2019-05-06T11:12:52.360Z,20.93
2019-05-06T11:15:33.094Z,21.77
2019-05-06T11:18:05.116Z,24.27
2019-05-06T11:20:35.870Z,18.83
2019-05-06T11:23:07.624Z,18.17
2019-05-06T11:25:38.369Z,15.07
2019-05-06T11:28:12.577Z,16.17
2019-05-06T11:30:52.871Z,18.50
2019-05-06T11:33:29.832Z,14.73
2019-05-06T11:36:04.939Z,19.00
2019-05-06T11:38:43.121Z,15.20
2019-05-06T11:41:14.189Z,16.33
2019-05-06T11:43:44.926Z,20.63
2019-05-06T11:46:15.738Z,15.67
2019-05-06T11:48:46.561Z,16.93
2019-05-06T11:51:19.134Z,15.53
2019-05-06T11:53:53.901Z,15.10
2019-05-06T11:56:25.913Z,13.50
2019-05-06T11:58:58.501Z,10.73
2019-05-06T12:01:36.844Z,11.57
2019-05-06T12:04:07.590Z,14.50
2019-05-06T12:06:39.489Z,15.00
2019-05-06T12:09:16.307Z,15.07
2019-05-06T12:11:47.314Z,16.13
2019-05-06T12:14:18.097Z,16.93
2019-05-06T12:16:58.916Z,14.03
2019-05-06T12:19:32.226Z,12.87
2019-05-06T12:22:02.419Z,12.43
2019-05-06T12:24:33.329Z,12.00
2019-05-06T12:27:07.831Z,13.47
2019-05-06T12:29:38.696Z,15.13
2019-05-06T12:32:17.932Z,11.87
2019-05-06T12:34:52.445Z,12.70
2019-05-06T12:37:24.991Z,14.80
2019-05-06T12:39:59.662Z,14.73
2019-05-06T12:42:39.273Z,14.17
2019-05-06T12:45:17.582Z,14.37
2019-05-06T12:47:50.178Z,13.53
2019-05-06T12:50:26.491Z,15.77
2019-05-06T12:53:09.819Z,17.13
2019-05-06T12:55:42.900Z,17.50
2019-05-06T12:58:23.071Z,18.77
2019-05-06T13:00:56.994Z,18.57
2019-05-06T13:03:27.914Z,24.27
2019-05-06T13:06:06.933Z,18.10
2019-05-06T13:08:52.864Z,17.93
2019-05-06T13:11:12.986Z,16.37
2019-05-06T13:13:57.421Z,18.60
2019-05-06T13:16:25.377Z,16.90
2019-05-06T13:18:56.248Z,20.13
2019-05-06T13:21:32.803Z,20.03
2019-05-06T13:24:12.106Z,18.50
2019-05-06T13:26:45.104Z,19.27
2019-05-06T13:29:22.857Z,17.70
2019-05-06T13:31:57.980Z,14.93
2019-05-06T13:34:38.012Z,18.83
2019-05-06T13:37:23.035Z,16.50
2019-05-06T13:39:54.086Z,18.33
2019-05-06T13:42:27.523Z,19.03
2019-05-06T13:45:03.305Z,17.47
2019-05-06T13:47:48.957Z,18.87
2019-05-06T13:50:27.861Z,17.97
2019-05-06T13:53:11.187Z,22.97
2019-05-06T13:55:39.415Z,21.57
2019-05-06T13:58:12.391Z,22.37
2019-05-06T14:00:52.423Z,17.40
2019-05-06T14:03:28.291Z,17.90
2019-05-06T14:06:03.844Z,16.27
2019-05-06T14:08:37.925Z,18.20
2019-05-06T14:11:32.316Z,17.90
2019-05-06T14:14:29.070Z,20.10
2019-05-06T14:17:04.744Z,17.23
2019-05-06T14:19:35.512Z,18.47
2019-05-06T14:22:12.617Z,19.40
2019-05-06T14:24:46.071Z,21.40
2019-05-06T14:27:22.042Z,16.90
2019-05-06T14:29:54.344Z,17.23
2019-05-06T14:32:37.439Z,18.97
2019-05-06T14:35:08.624Z,19.83
2019-05-06T14:37:39.472Z,18.13
2019-05-06T14:40:13.507Z,14.40
2019-05-06T14:42:53.032Z,18.63
2019-05-06T14:45:23.932Z,16.27
2019-05-06T14:47:58.990Z,17.00
2019-05-06T14:50:44.409Z,20.63
2019-05-06T14:53:03.471Z,18.37
2019-05-06T14:55:35.974Z,20.97
2019-05-06T14:58:07.117Z,17.37
2019-05-06T15:00:38.003Z,20.00
2019-05-06T15:03:12.949Z,20.57
2019-05-06T15:05:45.219Z,17.63
2019-05-06T15:08:16.011Z,20.10
2019-05-06T15:10:49.540Z,18.47
2019-05-06T15:13:22.749Z,20.90
2019-05-06T15:15:53.008Z,20.60
2019-05-06T15:18:32.914Z,22.37
2019-05-06T15:21:29.104Z,20.90
2019-05-06T15:23:42.534Z,23.23
2019-05-06T15:26:13.372Z,15.83
2019-05-06T15:28:52.868Z,18.30
2019-05-06T15:31:29.410Z,17.27
2019-05-06T15:34:02.698Z,15.97
2019-05-06T15:36:42.386Z,19.10
2019-05-06T15:39:13.308Z,15.83
2019-05-06T15:41:44.154Z,13.83
2019-05-06T15:44:15.162Z,15.93
2019-05-06T15:46:47.986Z,15.73
2019-05-06T15:49:22.299Z,12.90
2019-05-06T15:51:52.923Z,14.67
2019-05-06T15:54:34.665Z,12.77
2019-05-06T15:57:12.775Z,12.43
2019-05-06T15:59:44.641Z,11.97
2019-05-06T16:02:19.804Z,10.90
2019-05-06T16:04:50.512Z,15.57
2019-05-06T16:07:26.186Z,16.40
2019-05-06T16:09:56.999Z,16.63
2019-05-06T16:12:27.681Z,15.70
2019-05-06T16:14:59.531Z,20.13
2019-05-06T16:17:30.209Z,18.57
2019-05-06T16:20:07.222Z,22.87
2019-05-06T16:22:37.907Z,21.63
2019-05-06T16:25:15.675Z,14.63
2019-05-06T16:27:51.052Z,15.97
2019-05-06T16:30:24.107Z,15.47
2019-05-06T16:32:52.900Z,13.50
2019-05-06T16:35:23.752Z,14.97
2019-05-06T16:37:54.513Z,13.80
2019-05-06T16:40:25.397Z,12.97
2019-05-06T16:42:56.249Z,15.57
2019-05-06T16:45:27.911Z,11.67
2019-05-06T16:47:58.530Z,17.07
2019-05-06T16:50:29.872Z,14.53
2019-05-06T16:53:02.734Z,14.77
2019-05-06T16:55:55.550Z,16.20
2019-05-06T16:58:47.206Z,14.37
2019-05-06T17:01:18.007Z,15.27
2019-05-06T17:04:08.735Z,13.33
2019-05-06T17:06:42.990Z,15.03
2019-05-06T17:09:26.917Z,14.83
2019-05-06T17:11:58.622Z,12.43
2019-05-06T17:14:29.361Z,11.70
2019-05-06T17:17:03.077Z,14.70
2019-05-06T17:19:33.439Z,10.43
2019-05-06T17:22:06.161Z,11.47
2019-05-06T17:24:38.809Z,13.07
2019-05-06T17:27:11.921Z,12.60
2019-05-06T17:29:49.685Z,11.40
2019-05-06T17:32:27.982Z,12.20
2019-05-06T17:35:02.681Z,13.17
2019-05-06T17:37:52.703Z,10.53
2019-05-06T17:40:28.272Z,12.03
2019-05-06T17:42:59.071Z,11.00
2019-05-06T17:45:40.319Z,10.90
2019-05-06T17:48:28.056Z,13.57
2019-05-06T17:51:18.308Z,9.40
2019-05-06T17:53:55.867Z,10.67
2019-05-06T17:56:29.706Z,8.73
2019-05-06T17:59:03.744Z,12.37
2019-05-06T18:01:38.708Z,10.60
2019-05-06T18:04:09.309Z,10.77
2019-05-06T18:06:42.219Z,10.93
2019-05-06T18:09:13.317Z,12.67
2019-05-06T18:11:57.981Z,12.93
2019-05-06T18:14:23.204Z,11.07
2019-05-06T18:16:54.144Z,12.23
2019-05-06T18:19:24.926Z,12.60
2019-05-06T18:21:55.577Z,15.50
2019-05-06T18:24:26.265Z,11.90
2019-05-06T18:26:56.925Z,15.30
2019-05-06T18:29:28.468Z,12.77
2019-05-06T18:32:03.527Z,14.07
2019-05-06T18:34:33.451Z,13.73
2019-05-06T18:37:07.345Z,12.57
2019-05-06T18:39:42.336Z,13.60
2019-05-06T18:42:19.872Z,15.70
2019-05-06T18:44:47.051Z,15.03
2019-05-06T18:47:19.619Z,20.37
2019-05-06T18:49:53.655Z,14.90
2019-05-06T18:52:24.244Z,19.37
2019-05-06T18:55:02.324Z,18.37
2019-05-06T18:57:33.187Z,19.27
2019-05-06T19:00:04.190Z,16.33
2019-05-06T19:02:36.504Z,18.00
2019-05-06T19:05:28.150Z,18.90
2019-05-06T19:07:58.750Z,17.57
2019-05-06T19:10:34.524Z,19.00
2019-05-06T19:13:05.185Z,19.37
2019-05-06T19:15:45.249Z,19.33
2019-05-06T19:18:19.078Z,16.40
2019-05-06T19:20:49.940Z,20.17
2019-05-06T19:23:22.495Z,18.07
2019-05-06T19:25:53.086Z,18.07
2019-05-06T19:28:23.671Z,18.33
2019-05-06T19:30:55.374Z,17.33
2019-05-06T19:33:25.962Z,18.43
2019-05-06T19:35:56.745Z,20.73
2019-05-06T19:38:27.247Z,16.60
2019-05-06T19:40:57.926Z,17.53
2019-05-06T19:43:28.602Z,18.80
2019-05-06T19:46:02.749Z,17.47
2019-05-06T19:48:33.802Z,19.57
2019-05-06T19:51:06.540Z,20.50
2019-05-06T19:53:37.149Z,17.20
2019-05-06T19:56:08.975Z,16.97
2019-05-06T19:58:42.870Z,16.93
2019-05-06T20:01:18.283Z,18.00
2019-05-06T20:03:49.417Z,18.40
2019-05-06T20:06:24.885Z,16.00
2019-05-06T20:09:13.253Z,18.77
2019-05-06T20:11:45.240Z,14.90
2019-05-06T20:14:16.119Z,17.03
2019-05-06T20:16:52.955Z,17.70
2019-05-06T20:19:30.657Z,15.37
2019-05-06T20:21:57.018Z,16.40
2019-05-06T20:24:33.079Z,17.47
2019-05-06T20:27:03.838Z,16.27
2019-05-06T20:29:42.761Z,15.53
2019-05-06T20:32:16.821Z,15.13
2019-05-06T20:34:58.670Z,14.17
2019-05-06T20:37:29.466Z,15.03
2019-05-06T20:40:02.334Z,15.10
2019-05-06T20:42:32.829Z,14.37
2019-05-06T20:45:03.575Z,16.60
2019-05-06T20:47:39.705Z,13.10
2019-05-06T20:50:10.555Z,14.53
2019-05-06T20:52:46.890Z,15.33
2019-05-06T20:55:18.472Z,12.97
2019-05-06T20:57:52.875Z,13.10
2019-05-06T21:00:24.079Z,12.77
2019-05-06T21:02:54.957Z,14.33
2019-05-06T21:05:29.086Z,16.17
2019-05-06T21:08:10.041Z,14.97
2019-05-06T21:10:42.522Z,12.37
2019-05-06T21:13:21.968Z,13.83
2019-05-06T21:15:46.950Z,11.57
2019-05-06T21:18:19.001Z,12.03
2019-05-06T21:20:54.381Z,13.17
2019-05-06T21:23:34.226Z,12.93
2019-05-06T21:26:06.268Z,16.47
2019-05-06T21:28:36.916Z,14.87
2019-05-06T21:31:07.655Z,12.20
2019-05-06T21:33:38.350Z,12.80
2019-05-06T21:36:15.091Z,17.10
2019-05-06T21:38:45.688Z,12.73
2019-05-06T21:41:17.862Z,11.80
2019-05-06T21:43:50.116Z,15.83
2019-05-06T21:46:26.919Z,13.10
2019-05-06T21:48:57.610Z,14.87
2019-05-06T21:51:29.013Z,15.60
2019-05-06T21:54:02.324Z,14.17
2019-05-06T21:56:32.567Z,13.13
2019-05-06T21:59:03.323Z,12.37
2019-05-06T22:01:45.083Z,13.57
2019-05-06T22:04:15.951Z,13.93
2019-05-06T22:07:12.105Z,13.27
2019-05-06T22:09:45.303Z,11.40
2019-05-06T22:12:18.205Z,13.87
2019-05-06T22:14:49.426Z,15.33
2019-05-06T22:17:22.449Z,15.13
2019-05-06T22:19:52.838Z,14.80
2019-05-06T22:22:30.072Z,14.40
2019-05-06T22:25:05.897Z,14.70
2019-05-06T22:27:37.096Z,13.60
2019-05-06T22:30:07.964Z,17.53
2019-05-06T22:32:47.532Z,15.37
2019-05-06T22:35:18.211Z,15.33
2019-05-06T22:37:54.814Z,18.33
2019-05-06T22:40:32.761Z,13.73
2019-05-06T22:43:03.451Z,23.47
2019-05-06T22:45:47.549Z,12.23
2019-05-06T22:48:19.282Z,12.40
2019-05-06T22:50:50.018Z,15.70
2019-05-06T22:53:22.177Z,13.87
2019-05-06T22:55:54.753Z,14.63
2019-05-06T22:58:25.561Z,15.30
2019-05-06T23:00:57.635Z,21.97
2019-05-06T23:03:34.570Z,16.73
2019-05-06T23:06:04.914Z,15.73
2019-05-06T23:08:43.284Z,14.53
2019-05-06T23:11:15.468Z,17.20
2019-05-06T23:13:46.269Z,14.93
2019-05-06T23:16:17.143Z,14.97
2019-05-06T23:18:49.300Z,14.33
2019-05-06T23:21:23.219Z,14.17
2019-05-06T23:23:54.657Z,13.90
2019-05-06T23:26:35.319Z,13.67
2019-05-06T23:29:05.981Z,13.60
2019-05-06T23:31:36.740Z,13.90
2019-05-06T23:34:08.172Z,15.43
2019-05-06T23:37:23.225Z,15.90
2019-05-06T23:40:33.215Z,15.13
2019-05-06T23:43:43.694Z,17.97
2019-05-06T23:46:52.791Z,15.70
2019-05-06T23:50:00.770Z,16.73
2019-05-06T23:53:07.613Z,16.93
2019-05-06T23:56:14.893Z,14.57
2019-05-06T23:58:46.360Z,14.20
